createdAt,value
2023-04-01T00:01:45.431Z,74.50
2023-04-01T00:04:12.601Z,73.88
2023-04-01T00:06:39.678Z,73.53
2023-04-01T00:09:07.994Z,74.00
2023-04-01T00:11:37.663Z,72.59
2023-04-01T00:14:07.426Z,73.76
2023-04-01T00:16:39.782Z,73.44
2023-04-01T00:19:07.072Z,72.50
2023-04-01T00:21:34.986Z,72.09
2023-04-01T00:24:02.022Z,72.23
2023-04-01T00:26:31.693Z,71.72
2023-04-01T00:29:04.053Z,70.92
2023-04-01T00:31:31.261Z,68.77
2023-04-01T00:33:58.419Z,68.02
2023-04-01T00:36:28.084Z,70.46
2023-04-01T00:38:55.239Z,69.09
2023-04-01T00:41:22.441Z,69.96
2023-04-01T00:43:51.238Z,71.46
2023-04-01T00:46:19.466Z,72.89
2023-04-01T00:48:52.648Z,74.41
2023-04-01T00:51:27.245Z,75.60
2023-04-01T00:53:59.250Z,76.04
2023-04-01T00:56:32.933Z,76.06
2023-04-01T00:59:07.823Z,76.71
2023-04-01T01:01:35.704Z,76.02
2023-04-01T01:04:02.898Z,75.56
2023-04-01T01:06:49.206Z,74.86
2023-04-01T01:09:43.468Z,74.26
2023-04-01T01:12:41.718Z,74.41
2023-04-01T01:15:27.510Z,74.79
2023-04-01T01:18:04.031Z,75.49
2023-04-01T01:20:55.865Z,73.85
2023-04-01T01:23:42.607Z,72.80
2023-04-01T01:26:45.388Z,73.84
2023-04-01T01:29:40.498Z,73.58
2023-04-01T01:32:11.618Z,73.90
2023-04-01T01:35:12.302Z,74.19
2023-04-01T01:37:42.159Z,73.92
2023-04-01T01:40:11.367Z,74.81
2023-04-01T01:42:43.039Z,75.76
2023-04-01T01:45:12.682Z,75.03
2023-04-01T01:47:39.959Z,76.53
2023-04-01T01:50:09.052Z,76.65
2023-04-01T01:52:35.787Z,77.12
2023-04-01T01:55:02.911Z,76.88
2023-04-01T01:57:49.588Z,76.70
2023-04-01T02:00:17.538Z,76.72
2023-04-01T02:02:45.598Z,76.06
2023-04-01T02:05:16.560Z,75.37
2023-04-01T02:07:44.472Z,75.30
2023-04-01T02:10:13.988Z,74.88
2023-04-01T02:12:43.780Z,74.83
2023-04-01T02:15:13.860Z,74.09
2023-04-01T02:17:43.676Z,74.06
2023-04-01T02:20:14.397Z,73.37
2023-04-01T02:22:45.481Z,73.10
2023-04-01T02:25:14.552Z,72.33
2023-04-01T02:27:41.589Z,72.38
2023-04-01T02:30:10.598Z,71.76
2023-04-01T02:32:37.976Z,72.42
2023-04-01T02:35:09.309Z,71.51
2023-04-01T02:37:39.157Z,71.52
2023-04-01T02:40:09.520Z,70.98
2023-04-01T02:42:39.156Z,72.25
2023-04-01T02:45:08.046Z,71.50
2023-04-01T02:47:35.410Z,70.09
2023-04-01T02:50:05.225Z,69.88
2023-04-01T02:52:34.809Z,69.76
2023-04-01T02:55:02.160Z,69.45
2023-04-01T02:57:29.439Z,69.49
2023-04-01T02:59:56.602Z,69.55
2023-04-01T03:02:23.818Z,69.28
2023-04-01T03:04:51.550Z,70.61
2023-04-01T03:07:18.676Z,70.16
2023-04-01T03:09:46.117Z,71.05
2023-04-01T03:12:17.808Z,71.33
2023-04-01T03:14:44.874Z,72.86
2023-04-01T03:17:11.990Z,73.38
2023-04-01T03:19:39.068Z,73.08
2023-04-01T03:22:07.261Z,73.48
2023-04-01T03:24:34.404Z,74.38
2023-04-01T03:27:03.956Z,73.57
2023-04-01T03:29:30.942Z,73.16
2023-04-01T03:31:57.984Z,73.71
2023-04-01T03:34:28.193Z,74.33
2023-04-01T03:36:55.190Z,75.75
2023-04-01T03:39:22.265Z,76.17
2023-04-01T03:42:22.861Z,76.77
2023-04-01T03:44:50.592Z,77.37
2023-04-01T03:47:18.436Z,78.85
2023-04-01T03:49:45.556Z,78.15
2023-04-01T03:52:12.690Z,78.48
2023-04-01T03:54:39.962Z,78.26
2023-04-01T03:57:07.073Z,78.30
2023-04-01T03:59:34.398Z,79.48
2023-04-01T04:02:01.598Z,80.43
2023-04-01T04:04:29.200Z,81.46
2023-04-01T04:06:56.326Z,81.36
2023-04-01T04:09:23.806Z,80.67
2023-04-01T04:11:52.086Z,80.99
2023-04-01T04:14:48.910Z,80.20
2023-04-01T04:17:18.537Z,79.73
2023-04-01T04:19:46.732Z,78.29
2023-04-01T04:22:13.965Z,80.02
2023-04-01T04:24:40.744Z,80.06
2023-04-01T04:27:07.517Z,79.69
2023-04-01T04:29:34.194Z,78.45
2023-04-01T04:32:06.040Z,77.58
2023-04-01T04:34:33.302Z,78.21
2023-04-01T04:37:01.833Z,77.91
2023-04-01T04:39:29.101Z,78.38
2023-04-01T04:41:56.312Z,79.82
2023-04-01T04:44:23.774Z,79.92
2023-04-01T04:46:51.646Z,80.19
2023-04-01T04:49:24.349Z,79.62
2023-04-01T04:51:54.121Z,80.19
2023-04-01T04:54:22.125Z,81.10
2023-04-01T04:56:50.452Z,80.58
2023-04-01T04:59:17.673Z,81.34
2023-04-01T05:01:47.608Z,82.34
2023-04-01T05:04:16.273Z,82.21
2023-04-01T05:06:44.066Z,82.74
2023-04-01T05:09:11.826Z,82.82
2023-04-01T05:11:38.975Z,82.50
2023-04-01T05:14:06.830Z,82.55
2023-04-01T05:16:37.083Z,81.96
2023-04-01T05:19:03.897Z,81.95
2023-04-01T05:21:30.999Z,80.89
2023-04-01T05:23:57.731Z,80.78
2023-04-01T05:26:24.873Z,80.75
2023-04-01T05:28:51.599Z,81.22
2023-04-01T05:31:18.376Z,81.58
2023-04-01T05:33:45.506Z,81.69
2023-04-01T05:40:06.289Z,81.87
2023-04-01T05:42:33.056Z,81.42
2023-04-01T05:44:59.851Z,81.72
2023-04-01T05:47:26.636Z,81.24
2023-04-01T05:49:53.419Z,81.27
2023-04-01T05:52:20.553Z,81.09
2023-04-01T05:54:47.675Z,81.24
2023-04-01T05:57:16.258Z,81.88
2023-04-01T05:59:43.205Z,81.68
2023-04-01T06:02:10.391Z,81.86
2023-04-01T06:04:39.231Z,81.79
2023-04-01T06:07:18.129Z,80.87
2023-04-01T06:09:45.200Z,81.04
2023-04-01T06:12:35.422Z,79.95
2023-04-01T06:15:14.667Z,79.09
2023-04-01T06:18:24.247Z,78.67
2023-04-01T06:21:02.991Z,79.13
2023-04-01T06:23:35.068Z,79.48
2023-04-01T06:26:34.635Z,78.54
2023-04-01T06:29:39.932Z,78.50
2023-04-01T06:32:28.955Z,79.66
2023-04-01T06:34:59.608Z,78.99
2023-04-01T06:38:04.061Z,79.62
2023-04-01T06:40:49.641Z,80.09
2023-04-01T06:43:35.896Z,78.79
2023-04-01T06:50:09.205Z,79.81
2023-04-01T06:52:46.461Z,80.34
2023-04-01T06:55:21.139Z,80.49
2023-04-01T06:57:50.775Z,80.78
2023-04-01T07:00:31.144Z,80.60
2023-04-01T07:03:05.512Z,80.48
2023-04-01T07:05:33.884Z,81.10
2023-04-01T07:08:03.096Z,80.08
2023-04-01T07:11:03.893Z,79.55
2023-04-01T07:13:35.565Z,79.80
2023-04-01T07:16:27.050Z,79.33
2023-04-01T07:18:54.659Z,80.14
2023-04-01T07:21:33.466Z,81.17
2023-04-01T07:24:17.791Z,81.58
2023-04-01T07:26:45.551Z,81.14
2023-04-01T07:29:13.779Z,81.42
2023-04-01T07:32:16.953Z,81.70
2023-04-01T07:35:15.192Z,82.32
2023-04-01T07:38:07.245Z,83.31
2023-04-01T07:41:01.899Z,83.48
2023-04-01T07:43:34.836Z,82.98
2023-04-01T07:46:15.142Z,82.77
2023-04-01T07:49:12.674Z,82.04
2023-04-01T07:52:07.071Z,81.65
2023-04-01T07:54:37.258Z,81.86
2023-04-01T07:57:22.185Z,82.11
2023-04-01T08:00:07.841Z,81.84
2023-04-01T08:03:02.853Z,81.32
2023-04-01T08:05:33.155Z,79.23
2023-04-01T08:08:02.885Z,78.04
2023-04-01T08:10:32.575Z,77.70
2023-04-01T08:13:23.396Z,76.78
2023-04-01T08:15:50.312Z,76.77
2023-04-01T08:18:49.469Z,75.71
2023-04-01T08:21:30.316Z,74.26
2023-04-01T08:24:05.413Z,74.89
2023-04-01T08:26:35.320Z,74.65
2023-04-01T08:29:11.465Z,73.72
2023-04-01T08:31:41.220Z,74.35
2023-04-01T08:34:17.728Z,73.77
2023-04-01T08:36:47.054Z,74.61
2023-04-01T08:39:17.692Z,73.79
2023-04-01T08:42:06.128Z,75.22
2023-04-01T08:44:55.346Z,76.00
2023-04-01T08:47:57.808Z,75.73
2023-04-01T08:50:27.960Z,75.58
2023-04-01T08:53:22.221Z,75.92
2023-04-01T08:56:37.036Z,75.58
2023-04-01T08:59:12.782Z,75.68
2023-04-01T09:01:58.772Z,74.55
2023-04-01T09:04:46.908Z,73.55
2023-04-01T09:07:20.545Z,73.47
2023-04-01T09:09:56.477Z,72.75
2023-04-01T09:13:06.441Z,71.63
2023-04-01T09:15:39.375Z,70.74
2023-04-01T09:18:42.148Z,69.26
2023-04-01T09:21:36.905Z,69.32
2023-04-01T09:24:36.102Z,69.55
2023-04-01T09:27:22.272Z,69.55
2023-04-01T09:30:08.129Z,69.98
2023-04-01T09:33:08.026Z,68.77
2023-04-01T09:35:47.721Z,70.08
2023-04-01T09:38:24.904Z,71.86
2023-04-01T09:41:14.265Z,72.06
2023-04-01T09:44:03.858Z,73.25
2023-04-01T09:47:07.844Z,73.71
2023-04-01T09:49:52.705Z,72.79
2023-04-01T09:52:38.127Z,73.56
2023-04-01T09:55:44.100Z,72.72
2023-04-01T09:58:48.298Z,72.22
2023-04-01T10:01:57.419Z,73.69
2023-04-01T10:04:47.282Z,74.04
2023-04-01T10:07:36.916Z,74.50
2023-04-01T10:10:19.024Z,75.55
2023-04-01T10:12:51.640Z,76.68
2023-04-01T10:15:46.331Z,76.73
2023-04-01T10:18:54.371Z,76.30
2023-04-01T10:21:28.595Z,75.72
2023-04-01T10:24:20.412Z,71.21
2023-04-01T10:31:08.959Z,71.93
2023-04-01T10:33:47.741Z,70.28
2023-04-01T10:36:32.213Z,69.90
2023-04-01T10:39:23.549Z,70.05
2023-04-01T10:42:09.197Z,67.93
2023-04-01T10:45:01.884Z,69.65
2023-04-01T10:47:47.463Z,70.47
2023-04-01T10:50:33.663Z,69.96
2023-04-01T10:53:20.620Z,69.63
2023-04-01T10:55:55.350Z,69.45
2023-04-01T10:58:45.178Z,68.60
2023-04-01T11:05:07.574Z,69.17
2023-04-01T11:08:04.868Z,69.30
2023-04-01T11:11:11.106Z,70.37
2023-04-01T11:13:59.260Z,68.87
2023-04-01T11:17:10.071Z,75.84
2023-04-01T11:19:46.048Z,78.86
2023-04-01T11:22:22.248Z,80.52
2023-04-01T11:24:56.277Z,82.38
2023-04-01T11:27:39.488Z,83.45
2023-04-01T11:30:32.573Z,82.36
2023-04-01T11:33:10.503Z,82.63
2023-04-01T11:35:48.639Z,80.96
2023-04-01T11:38:37.188Z,79.51
2023-04-01T11:41:25.699Z,79.17
2023-04-01T11:44:18.118Z,76.24
2023-04-01T11:50:37.388Z,75.96
2023-04-01T11:53:51.826Z,72.16
2023-04-01T11:56:46.154Z,74.46
2023-04-01T11:59:42.747Z,70.83
2023-04-01T12:02:34.807Z,71.71
2023-04-01T12:05:16.671Z,72.92
2023-04-01T12:07:52.847Z,72.57
2023-04-01T12:13:53.943Z,69.63
2023-04-01T12:16:35.471Z,70.82
2023-04-01T12:19:42.188Z,70.18
2023-04-01T12:22:22.034Z,68.87
2023-04-01T12:25:08.776Z,69.22
2023-04-01T12:28:09.241Z,67.83
2023-04-01T12:30:57.208Z,65.01
2023-04-01T12:33:51.370Z,64.28
2023-04-01T12:36:40.136Z,61.65
2023-04-01T12:39:23.011Z,60.91
2023-04-01T12:42:07.836Z,61.81
2023-04-01T12:44:43.347Z,62.72
2023-04-01T12:47:13.165Z,60.17
2023-04-01T12:50:11.465Z,60.35
2023-04-01T12:53:21.127Z,60.78
2023-04-01T12:55:48.722Z,59.04
2023-04-01T12:59:06.809Z,59.22
2023-04-01T13:01:50.767Z,60.88
2023-04-01T13:05:02.786Z,59.40
2023-04-01T13:07:32.303Z,60.20
2023-04-01T13:10:04.519Z,60.61
2023-04-01T13:13:14.244Z,59.04
2023-04-01T13:16:17.990Z,60.67
2023-04-01T13:18:56.045Z,61.28
2023-04-01T13:21:41.720Z,64.89
2023-04-01T13:24:23.593Z,63.20
2023-04-01T13:27:16.529Z,63.12
2023-04-01T13:33:47.468Z,61.45
2023-04-01T13:36:45.521Z,61.55
2023-04-01T13:39:41.317Z,62.26
2023-04-01T13:42:28.787Z,60.70
2023-04-01T13:45:13.301Z,60.55
2023-04-01T13:48:08.460Z,61.18
2023-04-01T13:51:14.198Z,58.61
2023-04-01T13:53:56.353Z,60.95
2023-04-01T13:56:44.568Z,58.46
2023-04-01T13:59:30.124Z,59.76
2023-04-01T14:02:20.618Z,62.22
2023-04-01T14:05:22.358Z,61.54
2023-04-01T14:08:15.421Z,62.30
2023-04-01T14:14:57.055Z,60.56
2023-04-01T14:17:32.868Z,60.19
2023-04-01T14:20:12.533Z,60.34
2023-04-01T14:22:58.981Z,60.77
2023-04-01T14:26:05.787Z,63.05
2023-04-01T14:28:48.235Z,63.68
2023-04-01T14:31:33.974Z,66.62
2023-04-01T14:34:12.549Z,65.44
2023-04-01T14:36:49.550Z,66.30
2023-04-01T14:39:48.977Z,64.91
2023-04-01T14:42:24.901Z,64.65
2023-04-01T14:45:03.562Z,64.76
2023-04-01T14:48:08.581Z,64.95
2023-04-01T14:50:43.100Z,66.53
2023-04-01T14:53:19.143Z,68.10
2023-04-01T14:55:52.444Z,68.84
2023-04-01T14:58:21.469Z,70.29
2023-04-01T15:00:49.379Z,73.26
2023-04-01T15:03:33.772Z,72.88
2023-04-01T15:06:37.948Z,75.34
2023-04-01T15:09:19.989Z,76.40
2023-04-01T15:11:52.101Z,77.76
2023-04-01T15:14:28.927Z,76.92
2023-04-01T15:17:33.368Z,76.15
2023-04-01T15:20:09.889Z,76.90
2023-04-01T15:23:14.035Z,75.14
2023-04-01T15:26:08.574Z,74.94
2023-04-01T15:28:43.721Z,74.32
2023-04-01T15:31:30.238Z,72.22
2023-04-01T15:34:21.784Z,68.59
2023-04-01T15:37:12.190Z,67.78
2023-04-01T15:39:50.037Z,67.43
2023-04-01T15:42:57.304Z,68.44
2023-04-01T15:49:21.549Z,68.54
2023-04-01T15:51:54.277Z,71.22
2023-04-01T15:54:47.457Z,72.06
2023-04-01T15:57:32.668Z,71.99
2023-04-01T16:00:05.330Z,71.49
2023-04-01T16:02:42.294Z,73.51
2023-04-01T16:05:49.337Z,72.42
2023-04-01T16:08:19.002Z,70.33
2023-04-01T16:11:12.709Z,71.75
2023-04-01T16:14:05.920Z,71.02
2023-04-01T16:16:46.024Z,70.83
2023-04-01T16:19:41.073Z,70.10
2023-04-01T16:22:36.691Z,69.50
2023-04-01T16:28:41.629Z,68.24
2023-04-01T16:31:15.992Z,69.12
2023-04-01T16:33:50.131Z,68.73
2023-04-01T16:36:37.317Z,69.17
2023-04-01T16:39:45.164Z,68.35
2023-04-01T16:42:23.346Z,67.70
2023-04-01T16:45:01.908Z,67.54
2023-04-01T16:47:42.083Z,68.06
2023-04-01T16:50:42.812Z,69.02
2023-04-01T16:53:12.841Z,68.98
2023-04-01T16:56:05.818Z,69.80
2023-04-01T16:59:08.752Z,71.21
2023-04-01T17:10:01.813Z,71.78
2023-04-01T17:12:40.011Z,72.38
2023-04-01T17:15:36.593Z,72.85
2023-04-01T17:18:41.164Z,72.84
2023-04-01T17:21:19.553Z,73.81
2023-04-01T17:23:52.550Z,73.36
2023-04-01T17:26:58.274Z,73.79
2023-04-01T17:29:36.797Z,73.19
2023-04-01T17:32:16.320Z,73.91
2023-04-01T17:35:06.133Z,72.72
2023-04-01T17:37:56.066Z,73.54
2023-04-01T17:40:32.782Z,74.71
2023-04-01T17:43:20.936Z,74.03
2023-04-01T17:46:24.731Z,75.47
2023-04-01T17:48:58.192Z,74.47
2023-04-01T17:51:32.254Z,75.77
2023-04-01T17:54:14.552Z,76.68
2023-04-01T17:56:50.267Z,77.20
2023-04-01T18:02:20.369Z,76.39
2023-04-01T18:04:55.057Z,77.27
2023-04-01T18:07:32.490Z,77.90
2023-04-01T18:10:27.933Z,78.47
2023-04-01T18:13:13.163Z,77.44
2023-04-01T18:18:42.833Z,77.72
2023-04-01T18:21:40.419Z,77.47
2023-04-01T18:24:15.414Z,77.60
2023-04-01T18:26:44.398Z,77.76
2023-04-01T18:29:17.816Z,77.90
2023-04-01T18:31:47.074Z,76.93
2023-04-01T18:34:40.772Z,77.31
2023-04-01T18:37:17.005Z,76.58
2023-04-01T18:39:55.145Z,76.10
2023-04-01T18:42:59.375Z,76.34
2023-04-01T18:49:37.821Z,73.65
2023-04-01T18:52:18.853Z,73.62
2023-04-01T18:55:03.760Z,73.63
2023-04-01T18:57:44.133Z,72.52
2023-04-01T19:00:36.032Z,74.76
2023-04-01T19:03:21.433Z,75.82
2023-04-01T19:05:49.321Z,76.87
2023-04-01T19:08:27.106Z,76.09
2023-04-01T19:11:02.850Z,75.65
2023-04-01T19:13:48.536Z,75.77
2023-04-01T19:16:39.253Z,75.74
2023-04-01T19:19:36.062Z,75.97
2023-04-01T19:22:27.008Z,75.46
2023-04-01T19:25:15.873Z,75.15
2023-04-01T19:27:53.917Z,74.79
2023-04-01T19:30:32.003Z,75.20
2023-04-01T19:33:23.968Z,74.86
2023-04-01T19:36:21.393Z,75.51
2023-04-01T19:39:26.266Z,75.89
2023-04-01T19:42:00.569Z,76.26
2023-04-01T19:45:13.145Z,76.43
2023-04-01T19:48:05.555Z,76.09
2023-04-01T19:50:35.266Z,76.93
2023-04-01T19:53:12.572Z,77.89
2023-04-01T19:55:50.710Z,77.10
2023-04-01T19:58:38.657Z,78.94
2023-04-01T20:05:00.224Z,78.70
2023-04-01T20:07:44.935Z,78.58
2023-04-01T20:10:46.726Z,79.00
2023-04-01T20:13:24.388Z,78.99
2023-04-01T20:16:09.078Z,78.65
2023-04-01T20:18:49.464Z,78.97
2023-04-01T20:21:23.567Z,78.17
2023-04-01T20:24:24.089Z,78.10
2023-04-01T20:27:08.657Z,76.54
2023-04-01T20:30:05.388Z,75.85
2023-04-01T20:32:48.003Z,76.19
2023-04-01T20:35:32.665Z,78.54
2023-04-01T20:38:23.017Z,78.08
2023-04-01T20:44:45.413Z,76.83
2023-04-01T20:47:33.597Z,77.47
2023-04-01T20:50:37.830Z,78.46
2023-04-01T20:53:17.367Z,78.09
2023-04-01T20:56:23.573Z,79.62
2023-04-01T20:59:38.383Z,79.33
2023-04-01T21:02:23.546Z,80.69
2023-04-01T21:05:34.686Z,80.29
2023-04-01T21:08:10.000Z,80.20
2023-04-01T21:10:39.649Z,80.14
2023-04-01T21:13:27.893Z,79.74
2023-04-01T21:16:09.586Z,80.72
2023-04-01T21:19:00.999Z,80.43
2023-04-01T21:22:21.894Z,80.58
2023-04-01T21:24:56.601Z,81.35
2023-04-01T21:27:47.553Z,79.77
2023-04-01T21:34:32.881Z,78.73
2023-04-01T21:37:18.354Z,77.61
2023-04-01T21:39:44.909Z,79.06
2023-04-01T21:42:35.572Z,77.35
2023-04-01T21:45:11.318Z,76.16
2023-04-01T21:47:49.317Z,75.31
2023-04-01T21:50:46.911Z,75.97
2023-04-01T21:53:32.950Z,75.48
2023-04-01T21:56:14.886Z,74.91
2023-04-01T21:59:00.300Z,74.66
2023-04-01T22:01:42.431Z,74.43
2023-04-01T22:04:22.068Z,74.35
2023-04-01T22:07:05.948Z,74.29
2023-04-01T22:09:36.105Z,73.44
2023-04-01T22:12:07.425Z,74.35
2023-04-01T22:14:54.189Z,76.33
2023-04-01T22:17:23.298Z,76.36
2023-04-01T22:19:57.261Z,76.89
2023-04-01T22:22:44.280Z,77.18
2023-04-01T22:25:16.228Z,77.14
2023-04-01T22:27:48.356Z,77.76
2023-04-01T22:30:23.844Z,76.99
2023-04-01T22:32:51.813Z,76.35
2023-04-01T22:35:52.207Z,75.99
2023-04-01T22:38:24.490Z,75.06
2023-04-01T22:41:00.175Z,74.53
2023-04-01T22:43:45.244Z,73.70
2023-04-01T22:46:21.136Z,73.26
2023-04-01T22:49:01.588Z,74.07
2023-04-01T22:51:55.343Z,74.75
2023-04-01T22:54:34.559Z,75.28
2023-04-01T22:57:08.775Z,76.13
2023-04-01T23:00:19.201Z,76.90
2023-04-01T23:03:09.967Z,78.82
2023-04-01T23:05:38.514Z,78.06
2023-04-01T23:08:24.756Z,77.92
2023-04-01T23:10:53.718Z,78.44
2023-04-01T23:13:23.506Z,76.76
2023-04-01T23:15:50.263Z,76.04
2023-04-01T23:18:40.213Z,75.08
2023-04-01T23:21:14.110Z,72.75
2023-04-01T23:23:53.608Z,74.69
2023-04-01T23:26:37.392Z,74.23
2023-04-01T23:29:04.130Z,76.83
2023-04-01T23:31:31.749Z,76.16
2023-04-01T23:34:02.329Z,75.82
2023-04-01T23:36:30.698Z,75.25
2023-04-01T23:38:57.411Z,72.27
2023-04-01T23:41:30.394Z,79.00
2023-04-01T23:44:09.745Z,78.80
2023-04-01T23:46:36.583Z,80.70
2023-04-01T23:49:03.752Z,81.08
2023-04-01T23:51:37.353Z,78.01
2023-04-01T23:54:05.209Z,76.92
2023-04-01T23:56:38.412Z,80.61
2023-04-01T23:59:05.234Z,80.84
